createdAt,value
2018-07-20T05:00:57.559Z,21.18
2018-07-20T05:06:00.905Z,21.25
2018-07-20T05:11:04.223Z,21.34
2018-07-20T05:16:07.565Z,21.37
2018-07-20T05:21:10.914Z,21.45
2018-07-20T05:26:17.513Z,21.52
2018-07-20T05:31:21.651Z,21.55
2018-07-20T05:36:24.951Z,21.67
2018-07-20T05:41:29.049Z,21.81
2018-07-20T05:46:32.386Z,21.85
2018-07-20T05:51:35.719Z,21.94
2018-07-20T05:56:39.045Z,21.97
2018-07-20T06:01:42.382Z,22.19
2018-07-20T06:06:45.717Z,22.40
2018-07-20T06:11:49.067Z,22.56
2018-07-20T06:16:52.406Z,22.70
2018-07-20T06:21:55.742Z,22.81
2018-07-20T06:26:59.079Z,22.93
2018-07-20T06:32:02.402Z,23.08
2018-07-20T06:37:05.734Z,23.21
2018-07-20T06:42:09.071Z,23.33
2018-07-20T06:47:13.454Z,23.42
2018-07-20T06:52:16.786Z,23.57
2018-07-20T06:57:20.883Z,23.67
2018-07-20T07:02:24.213Z,23.81
2018-07-20T07:07:28.334Z,23.98
2018-07-20T07:12:31.671Z,24.12
2018-07-20T07:17:35.762Z,24.28
2018-07-20T07:22:39.090Z,24.41
2018-07-20T07:27:42.419Z,24.54
2018-07-20T07:32:46.522Z,24.67
2018-07-20T07:37:49.850Z,24.79
2018-07-20T07:42:53.189Z,24.88
2018-07-20T07:47:56.523Z,24.97
2018-07-20T07:52:59.855Z,24.63
2018-07-20T07:58:03.233Z,24.94
2018-07-20T08:03:07.708Z,25.06
2018-07-20T08:08:11.009Z,25.26
2018-07-20T08:13:14.337Z,25.45
2018-07-20T08:18:17.666Z,25.57
2018-07-20T08:23:21.006Z,25.58
2018-07-20T08:28:25.115Z,25.59
2018-07-20T08:33:28.445Z,25.75
2018-07-20T08:38:32.535Z,25.89
2018-07-20T08:43:35.871Z,26.07
2018-07-20T08:48:39.378Z,26.26
2018-07-20T08:53:42.716Z,26.31
2018-07-20T08:58:46.825Z,26.40
2018-07-20T09:03:50.161Z,26.49
2018-07-20T09:08:53.497Z,26.64
2018-07-20T09:13:56.844Z,26.74
2018-07-20T09:19:00.181Z,26.49
2018-07-20T09:24:03.518Z,26.69
2018-07-20T09:29:07.627Z,26.88
2018-07-20T09:34:10.978Z,27.19
2018-07-20T09:39:14.302Z,27.17
2018-07-20T09:44:17.629Z,27.18
2018-07-20T09:49:20.994Z,27.30
2018-07-20T09:54:25.106Z,27.47
2018-07-20T09:59:28.482Z,27.48
2018-07-20T10:04:32.543Z,27.53
2018-07-20T10:09:35.882Z,27.55
2018-07-20T10:14:39.978Z,27.77
2018-07-20T10:19:43.305Z,27.92
2018-07-20T10:24:46.640Z,28.07
2018-07-20T10:29:50.743Z,28.08
2018-07-20T10:34:54.135Z,28.21
2018-07-20T10:39:57.461Z,28.29
2018-07-20T10:45:00.786Z,28.23
2018-07-20T10:50:04.119Z,27.89
2018-07-20T10:55:07.451Z,27.98
2018-07-20T11:00:10.770Z,27.89
2018-07-20T11:05:14.090Z,27.98
2018-07-20T11:10:17.522Z,28.18
2018-07-20T11:15:20.851Z,28.34
2018-07-20T11:20:24.190Z,28.06
2018-07-20T11:25:27.526Z,28.16
2018-07-20T11:30:30.864Z,28.38
2018-07-20T11:35:34.202Z,28.54
2018-07-20T11:40:37.555Z,28.81
2018-07-20T11:45:41.654Z,28.97
2018-07-20T11:50:45.966Z,29.06
2018-07-20T11:55:49.341Z,29.51
2018-07-20T12:00:52.637Z,29.87
2018-07-20T12:05:56.918Z,30.36
2018-07-20T12:11:00.287Z,30.85
2018-07-20T12:16:04.562Z,31.13
2018-07-20T12:21:07.936Z,30.86
2018-07-20T12:26:12.526Z,30.78
2018-07-20T12:31:15.876Z,31.08
2018-07-20T12:36:19.211Z,31.44
2018-07-20T12:41:22.766Z,31.87
2018-07-20T12:46:26.102Z,32.17
2018-07-20T12:51:29.427Z,31.93
2018-07-20T12:56:32.754Z,31.53
2018-07-20T13:01:36.838Z,31.89
2018-07-20T13:06:40.171Z,32.00
2018-07-20T13:11:43.535Z,31.82
2018-07-20T13:16:46.894Z,31.87
2018-07-20T13:21:50.243Z,31.79
2018-07-20T13:26:53.703Z,31.84
2018-07-20T13:31:57.034Z,32.17
2018-07-20T13:37:01.147Z,32.69
2018-07-20T13:42:04.469Z,32.19
2018-07-20T13:47:07.838Z,31.45
2018-07-20T13:52:11.166Z,31.90
2018-07-20T13:57:14.496Z,32.16
2018-07-20T14:02:17.826Z,32.01
2018-07-20T14:07:21.163Z,31.82
2018-07-20T14:12:25.356Z,31.66
2018-07-20T14:17:28.694Z,31.49
2018-07-20T14:22:32.388Z,31.38
2018-07-20T14:27:35.971Z,31.27
2018-07-20T14:32:39.729Z,31.21
2018-07-20T14:37:47.174Z,30.52
2018-07-20T14:42:54.137Z,29.83
2018-07-20T14:47:57.481Z,29.55
2018-07-20T14:53:00.826Z,29.30
2018-07-20T14:58:04.579Z,29.13
2018-07-20T15:03:07.933Z,29.33
2018-07-20T15:08:12.039Z,29.90
2018-07-20T15:13:15.367Z,30.71
2018-07-20T15:18:18.705Z,31.16
2018-07-20T15:23:22.816Z,32.07
2018-07-20T15:28:26.910Z,32.61
2018-07-20T15:33:30.244Z,32.69
2018-07-20T15:38:33.574Z,33.28
2018-07-20T15:43:37.692Z,33.67
2018-07-20T15:48:41.303Z,33.64
2018-07-20T15:53:45.263Z,33.74
2018-07-20T15:58:57.666Z,34.12
2018-07-20T16:04:00.994Z,34.40
2018-07-20T16:09:05.092Z,34.79
2018-07-20T16:14:08.450Z,34.81
2018-07-20T16:19:12.581Z,34.57
2018-07-20T16:24:16.138Z,34.55
2018-07-20T16:29:47.715Z,35.01
2018-07-20T16:34:51.081Z,35.02
2018-07-20T16:40:02.228Z,34.23
2018-07-20T16:45:05.570Z,34.16
2018-07-20T16:50:32.246Z,34.77
2018-07-20T16:55:36.355Z,35.17
2018-07-20T17:00:59.739Z,35.11
2018-07-20T17:06:03.092Z,35.01
2018-07-20T17:11:06.758Z,34.77
2018-07-20T17:16:10.431Z,34.33
2018-07-20T17:21:13.794Z,33.89
2018-07-20T17:26:17.126Z,33.54
2018-07-20T17:31:20.465Z,32.99
2018-07-20T17:36:23.850Z,32.67
2018-07-20T17:41:27.337Z,32.33
2018-07-20T17:46:31.109Z,32.10
2018-07-20T17:51:34.446Z,31.91
2018-07-20T17:56:37.810Z,31.74
2018-07-20T18:01:41.171Z,31.59
2018-07-20T18:06:44.531Z,31.50
2018-07-20T18:11:48.326Z,31.45
2018-07-20T18:16:53.407Z,31.31
2018-07-20T18:21:56.770Z,31.24
2018-07-20T18:27:00.241Z,31.10
2018-07-20T18:32:04.609Z,31.03
2018-07-20T18:37:08.182Z,30.94
2018-07-20T18:42:12.706Z,30.88
2018-07-20T18:47:17.539Z,30.76
2018-07-20T18:52:20.886Z,30.65
2018-07-20T18:57:24.220Z,30.56
2018-07-20T19:02:28.323Z,30.51
2018-07-20T19:07:31.653Z,30.38
2018-07-20T19:12:34.986Z,30.24
2018-07-20T19:17:39.077Z,30.18
2018-07-20T19:22:42.422Z,28.99
2018-07-20T19:27:46.525Z,27.88
2018-07-20T19:32:49.859Z,26.74
2018-07-20T19:37:53.194Z,22.51
2018-07-20T19:42:57.298Z,21.50
2018-07-20T19:48:00.627Z,21.89
2018-07-20T19:53:04.731Z,22.34
2018-07-20T19:58:08.084Z,22.55
2018-07-20T20:03:11.427Z,22.80
2018-07-20T20:08:14.746Z,23.11
2018-07-20T20:13:18.093Z,23.48
2018-07-20T20:18:21.581Z,23.74
2018-07-20T20:23:24.942Z,24.05
2018-07-20T20:28:28.283Z,24.27
2018-07-20T20:33:31.851Z,24.36
2018-07-20T20:38:35.215Z,24.49
2018-07-20T20:43:38.673Z,23.42
2018-07-20T20:48:42.135Z,23.75
2018-07-20T20:53:45.490Z,24.01
2018-07-20T20:58:48.877Z,23.57
2018-07-20T21:03:52.223Z,23.50
2018-07-20T21:08:55.592Z,23.99
2018-07-20T21:13:58.944Z,23.20
2018-07-20T21:19:02.277Z,22.88
2018-07-20T21:24:05.632Z,22.85
2018-07-20T21:29:09.376Z,22.44
2018-07-20T21:34:13.094Z,22.35
2018-07-20T21:39:16.552Z,22.20
2018-07-20T21:44:20.017Z,22.25
2018-07-20T21:49:23.347Z,22.49
2018-07-20T21:54:26.706Z,23.07
2018-07-20T21:59:30.099Z,22.86
2018-07-20T22:04:33.468Z,22.94
2018-07-20T22:09:36.826Z,23.07
2018-07-20T22:14:40.319Z,23.17
2018-07-20T22:19:43.645Z,23.28
2018-07-20T22:24:47.012Z,23.40
2018-07-20T22:29:50.357Z,23.54
